Time;durP1;ratioP1;P1;durP2;ratioP2;P2;SDS_P1;SDS_P2;PMS_P1;PMS_P2;Temp;Humidity;BMP_temperature;BMP_pressure;BME280_temperature;BME280_humidity;BME280_pressure;Samples;Min_cycle;Max_cycle;Signal;HPM_P1;HPM_P2
2021/07/13 00:01:30;;;;;;;0.10;0.10;;;;;;;23.75;51.28;98813.28;5013291;28;20037;-78
2021/07/13 00:03:55;;;;;;;0.05;0.05;;;;;;;23.68;51.36;98802.31;5013224;28;20030;-78
2021/07/13 00:06:21;;;;;;;0.00;0.00;;;;;;;23.64;51.58;98806.91;5013015;28;20445;-78
2021/07/13 00:08:51;;;;;;;0.00;0.00;;;;;;;23.61;51.38;98815.84;5011821;28;20394;-78
2021/07/13 00:11:20;;;;;;;0.00;0.00;;;;;;;23.55;51.85;98811.88;5013161;28;20029;-78
2021/07/13 00:13:45;;;;;;;0.00;0.00;;;;;;;23.48;51.85;98812.53;5013126;28;20021;-79
2021/07/13 00:16:12;;;;;;;0.00;0.00;;;;;;;23.47;51.83;98813.69;5013271;28;20033;-78
2021/07/13 00:18:38;;;;;;;0.00;0.00;;;;;;;23.43;52.08;98816.38;5011917;28;20412;-78
2021/07/13 00:21:06;;;;;;;0.08;0.08;;;;;;;23.39;51.99;98815.53;5012008;28;20030;-78
2021/07/13 00:23:32;;;;;;;;;;;;;;;23.39;52.30;98809.28;5013348;28;20025;-78
2021/07/13 00:25:58;;;;;;;0.00;0.00;;;;;;;23.32;52.38;98808.03;5013171;28;19921;-79
2021/07/13 00:28:23;;;;;;;0.10;0.10;;;;;;;23.30;52.64;98804.09;5044465;28;20022;-79
2021/07/13 00:30:49;;;;;;;0.00;0.00;;;;;;;23.24;52.71;98808.31;5011647;28;20030;-79
2021/07/13 00:33:14;;;;;;;0.03;0.03;;;;;;;23.14;52.68;98796.03;5011382;28;20033;-79
2021/07/13 00:35:40;;;;;;;0.00;0.00;;;;;;;23.03;52.83;98798.59;5012624;28;20053;-78
2021/07/13 00:38:06;;;;;;;0.10;0.10;;;;;;;22.96;52.96;98801.22;5012406;28;20109;-78
2021/07/13 00:40:31;;;;;;;0.00;0.00;;;;;;;22.91;53.35;98798.81;5012492;28;20029;-79
2021/07/13 00:42:57;;;;;;;0.00;0.00;;;;;;;22.85;53.73;98804.56;5011540;28;20105;-79
2021/07/13 00:45:23;;;;;;;0.00;0.00;;;;;;;22.82;53.91;98812.69;5012723;28;20425;-79
2021/07/13 00:47:50;;;;;;;0.05;0.05;;;;;;;22.75;54.27;98810.63;5012478;28;20030;-79
2021/07/13 00:50:18;;;;;;;0.13;0.13;;;;;;;22.68;54.67;98811.28;5011167;28;20042;-79
2021/07/13 00:52:43;;;;;;;0.00;0.00;;;;;;;22.66;54.69;98815.53;5013009;28;20034;-79
2021/07/13 00:55:11;;;;;;;0.10;0.10;;;;;;;22.63;54.86;98818.97;5012220;28;20417;-79
2021/07/13 00:57:37;;;;;;;0.00;0.00;;;;;;;22.60;54.82;98809.59;5010919;28;20464;-79
2021/07/13 01:00:07;;;;;;;0.08;0.08;;;;;;;22.58;54.93;98808.38;5010813;28;20060;-79
2021/07/13 01:02:33;;;;;;;0.00;0.00;;;;;;;22.57;55.00;98823.16;5010854;28;20462;-79
2021/07/13 01:05:01;;;;;;;0.00;0.00;;;;;;;22.54;55.05;98822.75;5011966;28;20404;-79
2021/07/13 01:08:12;;;;;;;0.00;0.00;;;;;;;22.51;55.19;98820.72;5011787;28;20030;-79
2021/07/13 01:10:43;;;;;;;0.30;0.30;;;;;;;22.48;55.27;98826.88;5006587;28;20042;-78
2021/07/13 01:13:15;;;;;;;0.08;0.08;;;;;;;22.43;55.59;98816.28;5012064;28;20029;-79
2021/07/13 01:15:52;;;;;;;0.10;0.10;;;;;;;22.44;55.55;98814.38;5010771;28;20166;-79
2021/07/13 01:18:30;;;;;;;0.08;0.08;;;;;;;22.41;55.66;98813.16;5012149;28;20026;-79
2021/07/13 01:20:59;;;;;;;0.00;0.00;;;;;;;22.39;55.82;98816.22;5011868;28;20029;-79
2021/07/13 01:23:27;;;;;;;;;;;;;;;22.38;56.04;98808.41;5011893;28;20508;-79
2021/07/13 01:25:56;;;;;;;0.00;0.00;;;;;;;22.36;55.94;98814.22;5010386;28;20007;-79
2021/07/13 01:28:23;;;;;;;0.10;0.10;;;;;;;22.36;56.17;98821.56;5011502;28;20394;-79
2021/07/13 01:31:01;;;;;;;0.10;0.10;;;;;;;22.33;56.13;98814.91;5012155;28;20489;-79
2021/07/13 01:33:28;;;;;;;0.03;0.03;;;;;;;22.31;56.10;98819.16;5011619;28;20090;-79
2021/07/13 01:36:15;;;;;;;0.00;0.00;;;;;;;22.35;56.49;98814.53;5011790;28;20056;-78
2021/07/13 01:38:42;;;;;;;0.05;0.05;;;;;;;22.31;56.42;98808.25;5011717;28;20033;-78
2021/07/13 01:41:14;;;;;;;0.00;0.00;;;;;;;22.34;56.07;98813.00;5010182;28;20029;-78
2021/07/13 01:43:42;;;;;;;0.03;0.03;;;;;;;22.34;56.10;98807.53;5010134;28;20033;-79
2021/07/13 01:46:11;;;;;;;0.10;0.10;;;;;;;22.32;56.13;98807.88;5011316;28;20383;-79
2021/07/13 01:48:38;;;;;;;0.00;0.00;;;;;;;22.33;56.16;98809.47;5010124;28;20061;-79
2021/07/13 01:51:05;;;;;;;0.10;0.10;;;;;;;22.30;56.17;98817.56;5010371;28;20080;-79
2021/07/13 01:53:31;;;;;;;0.00;0.00;;;;;;;22.26;56.11;98809.31;5010256;28;20034;-79
2021/07/13 01:55:58;;;;;;;0.00;0.00;;;;;;;22.26;55.85;98822.16;5011860;28;20121;-79
2021/07/13 01:58:28;;;;;;;0.10;0.10;;;;;;;22.21;56.01;98821.28;5010359;28;20030;-78
2021/07/13 02:00:57;;;;;;;0.00;0.00;;;;;;;22.16;55.93;98816.16;5011496;28;20032;-79
2021/07/13 02:03:27;;;;;;;0.10;0.10;;;;;;;22.15;56.05;98822.72;5011436;28;20405;-79
2021/07/13 02:05:56;;;;;;;0.10;0.10;;;;;;;22.12;55.97;98822.66;5011838;28;20036;-79
2021/07/13 02:08:22;;;;;;;0.10;0.10;;;;;;;22.09;56.07;98824.19;5014285;28;20029;-79
2021/07/13 02:10:48;;;;;;;0.03;0.03;;;;;;;22.09;56.11;98817.94;5014970;28;20026;-79
2021/07/13 02:13:16;;;;;;;0.00;0.00;;;;;;;22.06;56.15;98825.69;5015921;28;20152;-79
2021/07/13 02:15:41;;;;;;;0.10;0.10;;;;;;;22.03;56.22;98828.34;5014338;28;20111;-79
2021/07/13 02:18:07;;;;;;;0.08;0.08;;;;;;;21.99;56.49;98828.25;5014086;28;20120;-79
2021/07/13 02:20:33;;;;;;;0.00;0.00;;;;;;;22.00;56.23;98831.78;5014140;28;20030;-79
2021/07/13 02:22:59;;;;;;;0.00;0.00;;;;;;;21.89;56.67;98818.72;5015820;28;20041;-79
2021/07/13 02:25:24;;;;;;;0.10;0.10;;;;;;;21.84;56.97;98816.28;5014222;28;20394;-79
2021/07/13 02:28:16;;;;;;;0.10;0.10;;;;;;;21.84;56.98;98823.69;5013905;28;20504;-78
2021/07/13 02:30:47;;;;;;;0.10;0.10;;;;;;;21.83;56.81;98824.81;5015243;28;20498;-78
2021/07/13 02:33:43;;;;;;;0.05;0.05;;;;;;;21.83;57.00;98828.31;5015190;28;20021;-78
2021/07/13 02:36:13;;;;;;;0.10;0.10;;;;;;;21.80;57.30;98820.88;5013231;28;20041;-79
2021/07/13 02:38:39;;;;;;;0.00;0.00;;;;;;;21.82;57.41;98832.19;5014591;28;20025;-78
2021/07/13 02:41:05;;;;;;;0.00;0.00;;;;;;;21.83;57.40;98838.44;5013898;28;20036;-78
2021/07/13 02:43:31;;;;;;;0.15;0.15;;;;;;;21.83;57.07;98841.94;5014902;28;20022;-79
2021/07/13 02:45:58;;;;;;;0.00;0.00;;;;;;;21.85;57.31;98841.56;5014968;28;20037;-78
2021/07/13 02:48:25;;;;;;;0.10;0.10;;;;;;;21.83;57.32;98836.50;5014576;28;20022;-78
2021/07/13 02:50:55;;;;;;;0.10;0.10;;;;;;;21.82;57.80;98834.91;5014552;28;20062;-78
2021/07/13 02:53:23;;;;;;;0.10;0.10;;;;;;;21.76;57.91;98836.34;5014813;28;20393;-78
2021/07/13 02:55:51;;;;;;;0.10;0.10;;;;;;;21.73;58.11;98834.34;5013577;28;20052;-78
2021/07/13 02:58:19;;;;;;;0.00;0.00;;;;;;;21.68;58.95;98843.56;5046737;28;20248;-78
2021/07/13 03:00:45;;;;;;;1.27;0.57;;;;;;;21.62;59.16;98839.53;5013474;28;20116;-78
2021/07/13 03:03:11;;;;;;;0.10;0.10;;;;;;;21.61;59.25;98842.63;5013506;28;20292;-79
2021/07/13 03:05:37;;;;;;;0.10;0.10;;;;;;;21.64;58.94;98852.78;5013140;28;20246;-79
2021/07/13 03:08:03;;;;;;;0.22;0.20;;;;;;;21.70;58.65;98848.66;5014728;28;20101;-78
2021/07/13 03:10:30;;;;;;;0.00;0.00;;;;;;;21.80;58.31;98844.56;5013870;28;20113;-79
2021/07/13 03:12:56;;;;;;;0.10;0.10;;;;;;;21.93;57.83;98846.03;5013408;28;20516;-78
2021/07/13 03:15:29;;;;;;;0.10;0.10;;;;;;;22.11;57.29;98843.69;5014314;28;20460;-78
2021/07/13 03:17:55;;;;;;;0.10;0.10;;;;;;;22.31;56.68;98849.13;5013377;28;20065;-79
2021/07/13 03:20:22;;;;;;;0.10;0.10;;;;;;;22.50;55.75;98849.13;5013278;28;20025;-79
2021/07/13 03:22:50;;;;;;;0.00;0.00;;;;;;;22.74;55.33;98851.88;5014219;28;20495;-78
2021/07/13 03:25:24;;;;;;;0.00;0.00;;;;;;;22.97;55.02;98840.97;5012933;28;20528;-78
2021/07/13 03:27:51;;;;;;;0.00;0.00;;;;;;;23.26;54.66;98844.97;5014233;28;20464;-78
2021/07/13 03:30:18;;;;;;;0.15;0.15;;;;;;;23.58;54.12;98841.16;5013030;28;20044;-78
2021/07/13 03:32:44;;;;;;;0.00;0.00;;;;;;;23.87;53.56;98839.59;5013633;28;20413;-78
2021/07/13 03:35:11;;;;;;;0.00;0.00;;;;;;;24.10;53.28;98830.53;5014059;28;20103;-78
2021/07/13 03:37:37;;;;;;;0.10;0.10;;;;;;;24.39;52.36;98836.31;5013925;28;20113;-78
2021/07/13 03:40:05;;;;;;;0.03;0.03;;;;;;;24.73;51.76;98839.00;5014015;28;20057;-78
2021/07/13 03:42:30;;;;;;;0.00;0.00;;;;;;;24.92;51.46;98836.06;5013550;28;20112;-78
2021/07/13 03:44:56;;;;;;;0.00;0.00;;;;;;;25.15;51.00;98845.25;5013783;28;20044;-78
2021/07/13 03:47:22;;;;;;;0.00;0.00;;;;;;;25.38;50.32;98836.84;5013907;28;20022;-78
2021/07/13 03:49:49;;;;;;;0.30;0.30;;;;;;;25.61;49.92;98830.31;5013116;28;20030;-78
2021/07/13 03:52:15;;;;;;;0.32;0.32;;;;;;;25.87;49.61;98829.28;5013507;28;20022;-79
2021/07/13 03:54:41;;;;;;;0.30;0.30;;;;;;;26.29;48.62;98825.16;5012069;28;20048;-78
2021/07/13 03:57:07;;;;;;;0.43;0.15;;;;;;;26.77;48.03;98832.31;5013390;28;20025;-78
2021/07/13 03:59:33;;;;;;;0.00;0.00;;;;;;;27.21;46.39;98832.28;5013096;28;20477;-78
2021/07/13 04:01:58;;;;;;;0.00;0.00;;;;;;;27.62;45.68;98829.09;5012234;28;20469;-78
2021/07/13 04:04:24;;;;;;;0.00;0.00;;;;;;;28.08;44.48;98828.19;5011858;28;20034;-78
2021/07/13 04:06:50;;;;;;;0.00;0.00;;;;;;;28.54;43.51;98831.84;5012270;28;20060;-78
2021/07/13 04:09:15;;;;;;;0.00;0.00;;;;;;;29.00;42.43;98823.69;5013090;28;20033;-79
2021/07/13 04:11:41;;;;;;;0.00;0.00;;;;;;;29.46;41.69;98825.22;5013358;28;20028;-78
2021/07/13 04:14:07;;;;;;;0.00;0.00;;;;;;;29.99;40.86;98827.81;5013117;28;20033;-78
2021/07/13 04:16:33;;;;;;;0.00;0.00;;;;;;;30.46;39.63;98827.19;5013175;28;20196;-78
2021/07/13 04:18:59;;;;;;;0.00;0.00;;;;;;;30.93;38.41;98832.00;5013056;28;20072;-79
2021/07/13 04:21:24;;;;;;;0.00;0.00;;;;;;;31.34;37.69;98822.63;5013318;28;20113;-79
2021/07/13 04:23:49;;;;;;;0.00;0.00;;;;;;;31.71;36.61;98831.84;5011133;28;20400;-79
2021/07/13 04:26:15;;;;;;;0.00;0.00;;;;;;;32.03;35.73;98822.09;5013422;28;20030;-79
2021/07/13 04:28:41;;;;;;;0.00;0.00;;;;;;;32.37;35.10;98834.03;5011553;28;20390;-79
2021/07/13 04:31:06;;;;;;;0.00;0.00;;;;;;;32.68;34.72;98830.97;5012661;28;20417;-78
2021/07/13 04:33:31;;;;;;;0.00;0.00;;;;;;;32.93;33.88;98830.38;5011576;28;20188;-78
2021/07/13 04:36:00;;;;;;;0.00;0.00;;;;;;;33.13;33.93;98826.69;5013313;28;20030;-79
2021/07/13 04:38:25;;;;;;;0.00;0.00;;;;;;;33.39;33.78;98824.09;5012495;28;20030;-79
2021/07/13 04:40:51;;;;;;;0.00;0.00;;;;;;;33.55;33.43;98829.59;5012214;28;20473;-80
2021/07/13 04:43:16;;;;;;;0.00;0.00;;;;;;;33.80;32.77;98830.88;5044157;28;20030;-79
2021/07/13 04:45:41;;;;;;;0.00;0.00;;;;;;;33.98;32.73;98836.72;5010767;28;20048;-80
2021/07/13 04:48:08;;;;;;;0.00;0.00;;;;;;;34.21;32.78;98822.97;5011166;28;20021;-79
2021/07/13 04:50:34;;;;;;;0.00;0.00;;;;;;;34.43;32.14;98834.22;5010848;28;20030;-80
2021/07/13 04:52:59;;;;;;;0.08;0.08;;;;;;;34.69;31.97;98834.19;5012759;28;20029;-80
2021/07/13 04:55:25;;;;;;;0.00;0.00;;;;;;;34.88;31.55;98819.31;5011183;28;20052;-80
2021/07/13 04:57:50;;;;;;;0.00;0.00;;;;;;;35.06;30.90;98829.81;5010812;28;20519;-79
2021/07/13 05:00:16;;;;;;;0.03;0.03;;;;;;;35.24;30.77;98820.06;5044077;28;20100;-79
2021/07/13 05:02:42;;;;;;;0.03;0.03;;;;;;;35.40;30.63;98827.50;5012116;28;20407;-80
2021/07/13 05:05:10;;;;;;;0.00;0.00;;;;;;;35.58;30.33;98826.84;5012234;28;20026;-80
2021/07/13 05:07:43;;;;;;;0.00;0.00;;;;;;;35.76;30.13;98834.53;5010373;28;20034;-80
2021/07/13 05:10:10;;;;;;;0.00;0.00;;;;;;;35.96;29.69;98831.47;5044039;28;20037;-80
2021/07/13 05:12:39;;;;;;;0.10;0.10;;;;;;;35.98;28.95;98828.22;5012005;28;20030;-79
2021/07/13 05:15:07;;;;;;;0.10;0.10;;;;;;;36.09;29.27;98833.38;5010780;28;20025;-80
2021/07/13 05:17:32;;;;;;;0.00;0.00;;;;;;;36.22;28.68;98829.25;5011751;28;20072;-80
2021/07/13 05:19:58;;;;;;;0.00;0.00;;;;;;;36.40;28.17;98830.56;5010525;28;20501;-80
2021/07/13 05:22:23;;;;;;;0.00;0.00;;;;;;;36.43;28.10;98832.47;5043810;28;20033;-78
2021/07/13 05:24:49;;;;;;;0.30;0.30;;;;;;;36.59;27.89;98823.06;5042892;28;20077;-79
2021/07/13 05:27:15;;;;;;;0.00;0.00;;;;;;;36.77;27.84;98827.13;5010678;28;20036;-79
2021/07/13 05:29:42;;;;;;;0.00;0.00;;;;;;;36.61;27.30;98819.81;5010306;28;20060;-79
2021/07/13 05:32:07;;;;;;;0.10;0.10;;;;;;;36.71;27.10;98824.19;5010695;28;20036;-79
2021/07/13 05:34:33;;;;;;;0.05;0.05;;;;;;;36.79;26.34;98828.22;5011822;28;20026;-79
2021/07/13 05:36:58;;;;;;;0.10;0.10;;;;;;;36.89;26.21;98831.84;5010646;28;20037;-79
2021/07/13 05:39:24;;;;;;;0.00;0.00;;;;;;;36.89;26.34;98828.25;5011902;28;20026;-79
2021/07/13 05:41:49;;;;;;;0.45;0.45;;;;;;;36.86;25.96;98827.16;5010735;28;20088;-79
2021/07/13 05:44:15;;;;;;;0.10;0.10;;;;;;;36.89;26.11;98833.84;5043423;28;20041;-79
2021/07/13 05:46:40;;;;;;;0.17;0.17;;;;;;;36.90;26.31;98833.38;5010139;28;20108;-80
2021/07/13 05:49:05;;;;;;;0.08;0.08;;;;;;;37.00;25.89;98836.97;5011660;28;20180;-79
2021/07/13 05:51:31;;;;;;;0.20;0.20;;;;;;;37.04;25.46;98842.38;5010235;28;20080;-79
2021/07/13 05:53:57;;;;;;;0.25;0.20;;;;;;;37.11;25.58;98828.91;5010534;28;20034;-79
2021/07/13 05:56:23;;;;;;;0.10;0.10;;;;;;;37.22;25.56;98828.47;5011656;28;20505;-79
2021/07/13 05:58:48;;;;;;;0.00;0.00;;;;;;;37.36;25.74;98826.31;5011785;28;20038;-79
2021/07/13 06:01:14;;;;;;;0.00;0.00;;;;;;;37.19;25.47;98821.00;5043288;28;20033;-79
2021/07/13 06:03:39;;;;;;;0.20;0.20;;;;;;;37.04;25.64;98831.22;5011246;28;20113;-79
2021/07/13 06:06:05;;;;;;;0.10;0.10;;;;;;;36.92;26.16;98825.31;5011379;28;20061;-79
2021/07/13 06:08:30;;;;;;;0.00;0.00;;;;;;;36.58;26.38;98824.28;5010142;28;20026;-79
2021/07/13 06:10:56;;;;;;;0.30;0.30;;;;;;;36.61;26.74;98828.16;5010005;28;20473;-79
2021/07/13 06:13:21;;;;;;;0.10;0.10;;;;;;;36.67;26.65;98832.69;5011659;28;20389;-80
2021/07/13 06:15:47;;;;;;;0.10;0.10;;;;;;;36.38;26.58;98827.50;5009997;28;20032;-79
2021/07/13 06:18:16;;;;;;;0.10;0.10;;;;;;;36.32;27.08;98840.44;5043071;28;20191;-79
2021/07/13 06:20:42;;;;;;;0.15;0.15;;;;;;;36.24;27.43;98830.81;5009998;28;20125;-79
2021/07/13 06:23:07;;;;;;;0.08;0.08;;;;;;;36.17;27.22;98829.06;5010686;28;20571;-79
2021/07/13 06:25:32;;;;;;;0.10;0.10;;;;;;;36.31;27.25;98830.53;5011151;28;20073;-79
2021/07/13 06:27:58;;;;;;;0.32;0.32;;;;;;;36.43;27.10;98838.03;5010932;28;20061;-79
2021/07/13 06:30:24;;;;;;;0.00;0.00;;;;;;;36.56;26.54;98842.72;5010236;28;20470;-79
2021/07/13 06:32:49;;;;;;;0.08;0.08;;;;;;;36.46;27.05;98836.34;5011416;28;20028;-79
2021/07/13 06:35:14;;;;;;;0.00;0.00;;;;;;;36.23;27.09;98838.38;5011777;28;20490;-79
2021/07/13 06:37:41;;;;;;;0.20;0.20;;;;;;;35.99;26.93;98827.00;5011331;28;20026;-81
2021/07/13 06:40:07;;;;;;;0.15;0.15;;;;;;;35.75;27.52;98830.22;5009989;28;20037;-80
2021/07/13 06:42:33;;;;;;;0.05;0.05;;;;;;;35.34;28.17;98829.25;5011472;28;20030;-82
2021/07/13 06:44:58;;;;;;;0.55;0.40;;;;;;;35.07;29.11;98820.25;5009714;28;20037;-79
2021/07/13 06:47:24;;;;;;;0.03;0.03;;;;;;;35.02;29.56;98818.06;5011403;28;20022;-80
2021/07/13 06:49:49;;;;;;;0.10;0.10;;;;;;;34.97;28.92;98815.81;5009519;28;20076;-80
2021/07/13 06:52:15;;;;;;;0.10;0.10;;;;;;;34.79;29.33;98816.41;5009561;28;20408;-80
2021/07/13 06:54:41;;;;;;;0.20;0.20;;;;;;;34.75;29.61;98821.31;5012476;28;20053;-79
2021/07/13 06:57:06;;;;;;;0.35;0.35;;;;;;;34.72;29.59;98822.97;5014767;28;20030;-80
2021/07/13 06:59:34;;;;;;;0.10;0.10;;;;;;;34.54;30.01;98818.00;5013495;28;20481;-80
2021/07/13 07:01:59;;;;;;;0.20;0.20;;;;;;;34.46;30.01;98819.44;5013185;28;20472;-80
2021/07/13 07:04:25;;;;;;;1.23;0.65;;;;;;;34.43;29.73;98815.56;5013761;28;20058;-80
2021/07/13 07:06:50;;;;;;;0.00;0.00;;;;;;;34.38;29.76;98810.56;5014831;28;20030;-80
2021/07/13 07:09:15;;;;;;;0.00;0.00;;;;;;;34.41;30.51;98808.91;5013124;28;20529;-80
2021/07/13 07:11:41;;;;;;;0.00;0.00;;;;;;;34.40;29.95;98816.47;5014303;28;20069;-80
2021/07/13 07:14:06;;;;;;;0.35;0.35;;;;;;;34.41;30.04;98818.00;5013050;28;20033;-80
2021/07/13 07:16:32;;;;;;;0.05;0.05;;;;;;;34.40;29.71;98818.44;5014002;28;20603;-80
2021/07/13 07:18:57;;;;;;;0.00;0.00;;;;;;;34.39;29.94;98808.59;5013819;28;20040;-80
2021/07/13 07:21:23;;;;;;;0.00;0.00;;;;;;;34.37;30.06;98811.00;5012892;28;20494;-80
2021/07/13 07:23:48;;;;;;;0.03;0.03;;;;;;;34.30;30.47;98807.22;5013658;28;20113;-80
2021/07/13 07:26:14;;;;;;;0.00;0.00;;;;;;;34.30;30.36;98812.75;5014343;28;20032;-80
2021/07/13 07:28:40;;;;;;;0.00;0.00;;;;;;;34.26;30.48;98808.53;5012363;28;20026;-80
2021/07/13 07:31:05;;;;;;;0.10;0.10;;;;;;;34.24;30.83;98803.44;5012674;28;20025;-80
2021/07/13 07:33:31;;;;;;;0.30;0.30;;;;;;;34.11;30.92;98811.00;5013705;28;20061;-79
2021/07/13 07:35:56;;;;;;;1.13;0.47;;;;;;;33.82;31.56;98803.47;5012430;28;20056;-80
2021/07/13 07:38:22;;;;;;;0.17;0.17;;;;;;;33.74;31.74;98808.47;5014023;28;20032;-80
2021/07/13 07:40:47;;;;;;;0.05;0.05;;;;;;;33.53;31.86;98804.28;5012252;28;20079;-79
2021/07/13 07:43:13;;;;;;;0.57;0.57;;;;;;;33.38;31.62;98806.69;5012576;28;20043;-80
2021/07/13 07:45:38;;;;;;;0.00;0.00;;;;;;;33.28;32.31;98804.97;5013444;28;20026;-80
2021/07/13 07:48:04;;;;;;;0.00;0.00;;;;;;;33.27;32.17;98798.63;5012359;28;20029;-80
2021/07/13 07:50:30;;;;;;;0.08;0.08;;;;;;;33.28;32.04;98800.19;5012381;28;20398;-80
2021/07/13 07:52:55;;;;;;;0.45;0.22;;;;;;;33.18;32.39;98801.25;5012064;28;20109;-80
2021/07/13 07:55:23;;;;;;;0.20;0.20;;;;;;;33.10;32.92;98802.66;5012357;28;20022;-80
2021/07/13 07:57:49;;;;;;;0.00;0.00;;;;;;;32.94;31.82;98797.94;5011907;28;20070;-80
2021/07/13 08:00:17;;;;;;;0.20;0.20;;;;;;;32.79;31.35;98792.75;5012107;28;20022;-83
2021/07/13 08:02:43;;;;;;;0.57;0.40;;;;;;;32.65;32.09;98796.59;5013330;28;20084;-82
2021/07/13 08:05:09;;;;;;;0.10;0.10;;;;;;;32.54;32.68;98796.09;5011263;28;20034;-80
2021/07/13 08:07:35;;;;;;;0.10;0.10;;;;;;;32.44;33.56;98789.59;5013517;28;20030;-81
2021/07/13 08:10:01;;;;;;;0.68;0.65;;;;;;;32.33;32.57;98794.59;5011744;28;20120;-81
2021/07/13 08:12:26;;;;;;;0.17;0.17;;;;;;;32.26;33.11;98795.53;5012092;28;20056;-81
2021/07/13 08:14:52;;;;;;;0.08;0.08;;;;;;;32.22;34.30;98792.84;5011668;28;20041;-79
2021/07/13 08:17:19;;;;;;;0.05;0.05;;;;;;;32.25;34.40;98792.00;5012053;28;20030;-80
2021/07/13 08:19:45;;;;;;;0.10;0.10;;;;;;;32.25;34.10;98802.28;5012974;28;20033;-81
2021/07/13 08:22:11;;;;;;;0.10;0.10;;;;;;;32.12;33.51;98798.59;5011810;28;20033;-82
2021/07/13 08:24:38;;;;;;;0.60;0.47;;;;;;;32.04;34.23;98793.25;5011569;28;20052;-80
2021/07/13 08:27:07;;;;;;;0.20;0.20;;;;;;;32.00;32.69;98794.53;5013008;28;20109;-81
2021/07/13 08:29:32;;;;;;;1.75;0.55;;;;;;;31.95;33.45;98793.03;5012394;28;20477;-80
2021/07/13 08:31:59;;;;;;;0.15;0.15;;;;;;;31.85;32.42;98794.03;5011174;28;20037;-80
2021/07/13 08:34:29;;;;;;;0.00;0.00;;;;;;;31.84;33.58;98786.97;5011441;28;20069;-79
2021/07/13 08:36:56;;;;;;;0.32;0.32;;;;;;;31.87;33.56;98791.63;5011163;28;20555;-79
2021/07/13 08:39:22;;;;;;;0.10;0.10;;;;;;;31.96;33.81;98791.03;5012605;28;20113;-79
2021/07/13 08:41:48;;;;;;;0.13;0.13;;;;;;;32.03;32.92;98788.91;5011003;28;20040;-79
2021/07/13 08:44:14;;;;;;;0.00;0.00;;;;;;;32.13;32.01;98778.81;5012826;28;20085;-79
2021/07/13 08:46:43;;;;;;;0.08;0.08;;;;;;;32.28;31.59;98790.38;5012434;28;20528;-79
2021/07/13 08:49:11;;;;;;;0.00;0.00;;;;;;;32.37;31.07;98778.69;5011096;28;20026;-79
2021/07/13 08:51:37;;;;;;;0.00;0.00;;;;;;;32.44;29.77;98781.28;5011365;28;20445;-79
2021/07/13 08:54:03;;;;;;;0.00;0.00;;;;;;;32.55;29.51;98786.56;5010818;28;20100;-81
2021/07/13 08:56:30;;;;;;;0.03;0.03;;;;;;;32.50;28.09;98784.34;5012298;28;20026;-81
2021/07/13 08:58:56;;;;;;;0.22;0.22;;;;;;;32.48;28.67;98781.22;5010786;28;20037;-81
2021/07/13 09:01:22;;;;;;;0.10;0.10;;;;;;;32.43;28.85;98785.25;5012469;28;20026;-82
2021/07/13 09:03:56;;;;;;;0.13;0.13;;;;;;;32.36;29.77;98785.44;5010630;28;20112;-83
2021/07/13 09:06:23;;;;;;;0.35;0.35;;;;;;;32.30;30.29;98789.91;5010885;28;20030;-80
2021/07/13 09:08:49;;;;;;;0.10;0.10;;;;;;;32.20;30.28;98788.94;5010451;28;20524;-80
2021/07/13 09:11:20;;;;;;;0.80;0.50;;;;;;;32.25;30.15;98774.59;5012362;28;20058;-79
2021/07/13 09:13:54;;;;;;;0.20;0.17;;;;;;;32.34;30.67;98780.34;5011954;28;20389;-80
2021/07/13 09:16:30;;;;;;;0.10;0.10;;;;;;;32.46;29.71;98778.88;5011870;28;20026;-80
2021/07/13 09:18:58;;;;;;;0.10;0.10;;;;;;;32.53;30.04;98781.47;5011883;28;20076;-79
2021/07/13 09:21:26;;;;;;;0.10;0.10;;;;;;;32.66;29.42;98776.00;5010659;28;20498;-79
2021/07/13 09:24:21;;;;;;;0.10;0.10;;;;;;;32.79;29.22;98769.78;5010116;28;20062;-80
2021/07/13 09:26:52;;;;;;;0.40;0.40;;;;;;;32.83;30.07;98773.28;5010673;28;20099;-81
2021/07/13 09:29:40;;;;;;;0.00;0.00;;;;;;;32.95;29.60;98771.78;5011985;28;20033;-81
2021/07/13 09:32:27;;;;;;;0.10;0.10;;;;;;;32.99;28.55;98772.47;5010381;28;20087;-78
2021/07/13 09:35:03;;;;;;;0.00;0.00;;;;;;;32.98;28.60;98777.22;5010239;28;20088;-78
2021/07/13 09:37:31;;;;;;;0.20;0.20;;;;;;;32.98;28.23;98776.44;5010241;28;20053;-80
2021/07/13 09:40:08;;;;;;;0.15;0.15;;;;;;;32.93;28.51;98766.66;5010185;28;20044;-79
2021/07/13 09:42:43;;;;;;;0.75;0.75;;;;;;;32.79;28.36;98772.56;5010776;28;20477;-80
2021/07/13 09:45:23;;;;;;;0.30;0.30;;;;;;;32.64;28.30;98777.66;5010569;28;20121;-81
2021/07/13 09:47:51;;;;;;;0.20;0.20;;;;;;;32.47;28.56;98769.38;5010053;28;20025;-82
2021/07/13 09:50:31;;;;;;;;;;;;;;;32.44;29.11;98770.22;5043801;28;20041;-81
2021/07/13 09:52:58;;;;;;;0.30;0.30;;;;;;;32.33;29.19;98764.94;5010047;28;19984;-80
2021/07/13 09:55:26;;;;;;;0.10;0.10;;;;;;;32.24;28.83;98756.47;5010403;28;20108;-81
2021/07/13 09:57:51;;;;;;;0.17;0.17;;;;;;;32.19;29.21;98756.94;5009913;28;20458;-80
2021/07/13 10:00:17;;;;;;;0.10;0.10;;;;;;;32.14;29.30;98752.72;5010088;28;20124;-79
2021/07/13 10:02:42;;;;;;;0.20;0.20;;;;;;;32.15;29.19;98751.47;5011594;28;20030;-79
2021/07/13 10:05:08;;;;;;;0.40;0.30;;;;;;;32.22;30.13;98747.81;5009903;28;20164;-80
2021/07/13 10:07:36;;;;;;;0.20;0.20;;;;;;;32.30;30.29;98740.13;5011451;28;20116;-79
2021/07/13 10:10:05;;;;;;;0.65;0.20;;;;;;;32.44;30.34;98739.00;5010129;28;20030;-80
2021/07/13 10:12:32;;;;;;;0.40;0.40;;;;;;;32.59;30.27;98740.19;5011383;28;20029;-80
2021/07/13 10:14:58;;;;;;;0.10;0.10;;;;;;;32.72;29.49;98743.06;5011415;28;20101;-80
2021/07/13 10:17:29;;;;;;;0.22;0.22;;;;;;;32.80;29.16;98735.34;5011743;28;20464;-79
2021/07/13 10:20:02;;;;;;;0.10;0.10;;;;;;;32.88;28.51;98728.44;5009779;28;20567;-81
2021/07/13 10:22:29;;;;;;;0.08;0.08;;;;;;;32.99;28.99;98728.91;5009888;28;20049;-80
2021/07/13 10:24:57;;;;;;;0.22;0.22;;;;;;;33.02;28.29;98732.78;5009490;28;20054;-80
2021/07/13 10:27:37;;;;;;;0.20;0.20;;;;;;;33.04;27.88;98730.38;5011072;28;20022;-79
2021/07/13 10:30:09;;;;;;;0.10;0.10;;;;;;;33.08;28.77;98721.97;5013799;28;20026;-80
2021/07/13 10:32:38;;;;;;;0.00;0.00;;;;;;;33.12;29.43;98723.44;5014169;28;20018;-80
2021/07/13 10:35:24;;;;;;;0.10;0.10;;;;;;;33.19;28.81;98722.44;5013669;28;20527;-81
2021/07/13 10:38:20;;;;;;;0.10;0.10;;;;;;;33.25;28.54;98715.19;5013652;28;20033;-81
2021/07/13 10:40:46;;;;;;;0.17;0.17;;;;;;;33.31;27.51;98716.22;5013881;28;20030;-78
2021/07/13 10:43:23;;;;;;;0.00;0.00;;;;;;;33.33;27.62;98715.78;5013748;28;20022;-79
2021/07/13 10:46:09;;;;;;;0.00;0.00;;;;;;;33.24;27.31;98710.06;5014785;28;20117;-81
2021/07/13 10:48:35;;;;;;;0.43;0.20;;;;;;;33.25;27.21;98709.63;5014811;28;20034;-79
2021/07/13 10:51:09;;;;;;;0.00;0.00;;;;;;;33.26;27.51;98710.41;5014651;28;20469;-79
2021/07/13 10:53:45;;;;;;;0.10;0.10;;;;;;;33.23;27.30;98702.94;5015277;28;20091;-80
2021/07/13 10:56:18;;;;;;;0.00;0.00;;;;;;;33.23;27.21;98709.28;5014428;28;20033;-79
2021/07/13 10:58:52;;;;;;;0.08;0.08;;;;;;;33.18;27.05;98699.50;5014635;28;20022;-80
2021/07/13 11:01:20;;;;;;;0.10;0.10;;;;;;;33.20;27.51;98697.09;5013135;28;20052;-79
2021/07/13 11:03:46;;;;;;;0.00;0.00;;;;;;;33.23;27.94;98702.94;5015003;28;20021;-80
2021/07/13 11:06:19;;;;;;;0.10;0.10;;;;;;;33.23;28.29;98700.97;5013977;28;20026;-79
2021/07/13 11:08:44;;;;;;;0.30;0.30;;;;;;;33.27;27.26;98709.94;5014344;28;20018;-81
2021/07/13 11:11:19;;;;;;;0.10;0.10;;;;;;;33.29;27.92;98713.06;5012991;28;20100;-79
2021/07/13 11:14:05;;;;;;;0.13;0.13;;;;;;;33.32;27.44;98698.34;5014469;28;20022;-80
2021/07/13 11:16:36;;;;;;;0.10;0.10;;;;;;;33.23;26.61;98697.41;5014630;28;20451;-79
2021/07/13 11:19:04;;;;;;;0.28;0.28;;;;;;;33.09;26.37;98687.53;5014028;28;20261;-79
2021/07/13 11:21:35;;;;;;;0.10;0.10;;;;;;;33.03;27.58;98688.06;5013132;28;20413;-80
2021/07/13 11:24:03;;;;;;;0.68;0.68;;;;;;;33.05;26.96;98693.91;5045689;28;20128;-81
2021/07/13 11:26:31;;;;;;;0.03;0.03;;;;;;;32.98;26.52;98693.34;5012939;28;20037;-81
2021/07/13 11:28:59;;;;;;;0.30;0.30;;;;;;;32.87;26.83;98688.09;5013790;28;20036;-81
2021/07/13 11:31:36;;;;;;;0.73;0.73;;;;;;;32.77;26.76;98698.25;5012858;28;20036;-79
2021/07/13 11:34:08;;;;;;;0.40;0.40;;;;;;;32.65;26.73;98682.34;5014148;28;20034;-81
2021/07/13 11:36:40;;;;;;;0.40;0.40;;;;;;;32.67;27.60;98677.91;5014117;28;20588;-80
2021/07/13 11:39:13;;;;;;;0.20;0.20;;;;;;;32.70;27.28;98682.59;5013486;28;20474;-82